sensor_id;sensor_type;location;lat;lon;timestamp;P1;durP1;ratioP1;P2;durP2;ratioP2
21862;SDS011;11096;51.338;12.524;2023-03-11T00:00:29;1.80;;;1.60;;
21862;SDS011;11096;51.338;12.524;2023-03-11T00:02:56;1.95;;;1.77;;
21862;SDS011;11096;51.338;12.524;2023-03-11T00:05:25;2.70;;;1.92;;
21862;SDS011;11096;51.338;12.524;2023-03-11T00:07:55;1.85;;;1.65;;
21862;SDS011;11096;51.338;12.524;2023-03-11T00:10:22;2.67;;;1.85;;
21862;SDS011;11096;51.338;12.524;2023-03-11T00:12:52;3.63;;;2.13;;
21862;SDS011;11096;51.338;12.524;2023-03-11T00:15:18;2.67;;;1.98;;
21862;SDS011;11096;51.338;12.524;2023-03-11T00:17:44;1.98;;;1.77;;
21862;SDS011;11096;51.338;12.524;2023-03-11T00:20:45;2.80;;;1.90;;
21862;SDS011;11096;51.338;12.524;2023-03-11T00:23:07;2.78;;;1.77;;
21862;SDS011;11096;51.338;12.524;2023-03-11T00:25:33;2.97;;;2.20;;
21862;SDS011;11096;51.338;12.524;2023-03-11T00:28:00;2.78;;;1.92;;
21862;SDS011;11096;51.338;12.524;2023-03-11T00:30:28;3.40;;;2.40;;
21862;SDS011;11096;51.338;12.524;2023-03-11T00:32:54;3.33;;;2.20;;
21862;SDS011;11096;51.338;12.524;2023-03-11T00:35:22;3.28;;;2.28;;
21862;SDS011;11096;51.338;12.524;2023-03-11T00:37:52;3.25;;;2.45;;
21862;SDS011;11096;51.338;12.524;2023-03-11T00:40:19;4.35;;;2.72;;
21862;SDS011;11096;51.338;12.524;2023-03-11T00:42:45;4.85;;;3.10;;
21862;SDS011;11096;51.338;12.524;2023-03-11T00:45:11;4.47;;;2.65;;
21862;SDS011;11096;51.338;12.524;2023-03-11T00:47:38;4.30;;;3.00;;
21862;SDS011;11096;51.338;12.524;2023-03-11T00:50:04;3.67;;;2.63;;
21862;SDS011;11096;51.338;12.524;2023-03-11T00:52:29;4.07;;;3.13;;
21862;SDS011;11096;51.338;12.524;2023-03-11T00:54:55;5.47;;;3.30;;
21862;SDS011;11096;51.338;12.524;2023-03-11T00:57:22;3.58;;;2.75;;
21862;SDS011;11096;51.338;12.524;2023-03-11T00:59:47;5.55;;;3.03;;
21862;SDS011;11096;51.338;12.524;2023-03-11T01:02:13;5.38;;;2.97;;
21862;SDS011;11096;51.338;12.524;2023-03-11T01:04:38;4.68;;;3.60;;
21862;SDS011;11096;51.338;12.524;2023-03-11T01:07:03;6.45;;;3.35;;
21862;SDS011;11096;51.338;12.524;2023-03-11T01:09:29;7.28;;;3.83;;
21862;SDS011;11096;51.338;12.524;2023-03-11T01:11:54;6.40;;;3.72;;
21862;SDS011;11096;51.338;12.524;2023-03-11T01:14:20;6.35;;;4.00;;
21862;SDS011;11096;51.338;12.524;2023-03-11T01:16:46;7.43;;;4.68;;
21862;SDS011;11096;51.338;12.524;2023-03-11T01:19:12;10.43;;;5.32;;
21862;SDS011;11096;51.338;12.524;2023-03-11T01:21:38;8.68;;;4.95;;
21862;SDS011;11096;51.338;12.524;2023-03-11T01:24:04;8.02;;;4.85;;
21862;SDS011;11096;51.338;12.524;2023-03-11T01:26:29;11.05;;;5.03;;
21862;SDS011;11096;51.338;12.524;2023-03-11T01:28:55;9.25;;;5.65;;
21862;SDS011;11096;51.338;12.524;2023-03-11T01:31:20;13.10;;;6.05;;
21862;SDS011;11096;51.338;12.524;2023-03-11T01:33:45;9.07;;;5.43;;
21862;SDS011;11096;51.338;12.524;2023-03-11T01:36:11;10.73;;;5.85;;
21862;SDS011;11096;51.338;12.524;2023-03-11T01:38:36;11.95;;;5.82;;
21862;SDS011;11096;51.338;12.524;2023-03-11T01:41:02;10.60;;;5.47;;
21862;SDS011;11096;51.338;12.524;2023-03-11T01:43:38;11.50;;;5.68;;
21862;SDS011;11096;51.338;12.524;2023-03-11T01:46:18;8.85;;;5.18;;
21862;SDS011;11096;51.338;12.524;2023-03-11T01:48:56;9.23;;;5.25;;
21862;SDS011;11096;51.338;12.524;2023-03-11T01:53:49;11.45;;;5.13;;
21862;SDS011;11096;51.338;12.524;2023-03-11T01:56:16;9.55;;;5.30;;
21862;SDS011;11096;51.338;12.524;2023-03-11T01:58:42;8.52;;;4.78;;
21862;SDS011;11096;51.338;12.524;2023-03-11T02:01:10;9.07;;;5.40;;
21862;SDS011;11096;51.338;12.524;2023-03-11T02:03:37;11.23;;;5.18;;
21862;SDS011;11096;51.338;12.524;2023-03-11T02:06:05;11.32;;;5.45;;
21862;SDS011;11096;51.338;12.524;2023-03-11T02:08:34;10.80;;;6.18;;
21862;SDS011;11096;51.338;12.524;2023-03-11T02:10:59;12.13;;;6.28;;
21862;SDS011;11096;51.338;12.524;2023-03-11T02:13:27;13.93;;;7.18;;
21862;SDS011;11096;51.338;12.524;2023-03-11T02:15:53;14.32;;;7.05;;
21862;SDS011;11096;51.338;12.524;2023-03-11T02:18:19;13.30;;;7.00;;
21862;SDS011;11096;51.338;12.524;2023-03-11T02:21:05;14.95;;;7.35;;
21862;SDS011;11096;51.338;12.524;2023-03-11T02:23:40;14.70;;;7.18;;
21862;SDS011;11096;51.338;12.524;2023-03-11T02:26:24;18.60;;;8.02;;
21862;SDS011;11096;51.338;12.524;2023-03-11T02:28:56;17.25;;;8.20;;
21862;SDS011;11096;51.338;12.524;2023-03-11T02:31:23;15.05;;;7.93;;
21862;SDS011;11096;51.338;12.524;2023-03-11T02:33:49;16.02;;;8.20;;
21862;SDS011;11096;51.338;12.524;2023-03-11T02:36:33;19.23;;;9.13;;
21862;SDS011;11096;51.338;12.524;2023-03-11T02:39:04;19.33;;;9.27;;
21862;SDS011;11096;51.338;12.524;2023-03-11T02:41:30;14.85;;;8.23;;
21862;SDS011;11096;51.338;12.524;2023-03-11T02:43:57;18.30;;;8.88;;
21862;SDS011;11096;51.338;12.524;2023-03-11T02:46:23;15.95;;;8.55;;
21862;SDS011;11096;51.338;12.524;2023-03-11T02:48:50;16.73;;;8.68;;
21862;SDS011;11096;51.338;12.524;2023-03-11T02:51:17;16.48;;;7.88;;
21862;SDS011;11096;51.338;12.524;2023-03-11T02:53:50;18.25;;;8.93;;
21862;SDS011;11096;51.338;12.524;2023-03-11T02:56:19;16.40;;;8.43;;
21862;SDS011;11096;51.338;12.524;2023-03-11T02:58:44;17.48;;;8.85;;
21862;SDS011;11096;51.338;12.524;2023-03-11T03:01:10;16.25;;;7.68;;
21862;SDS011;11096;51.338;12.524;2023-03-11T03:03:35;19.48;;;8.68;;
21862;SDS011;11096;51.338;12.524;2023-03-11T03:06:00;16.02;;;7.68;;
21862;SDS011;11096;51.338;12.524;2023-03-11T03:08:26;16.58;;;8.02;;
21862;SDS011;11096;51.338;12.524;2023-03-11T03:10:51;18.63;;;8.32;;
21862;SDS011;11096;51.338;12.524;2023-03-11T03:13:17;18.85;;;8.90;;
21862;SDS011;11096;51.338;12.524;2023-03-11T03:15:43;16.25;;;7.90;;
21862;SDS011;11096;51.338;12.524;2023-03-11T03:18:08;19.23;;;9.10;;
21862;SDS011;11096;51.338;12.524;2023-03-11T03:20:33;19.27;;;9.05;;
21862;SDS011;11096;51.338;12.524;2023-03-11T03:22:59;21.95;;;8.85;;
21862;SDS011;11096;51.338;12.524;2023-03-11T03:25:25;19.35;;;9.27;;
21862;SDS011;11096;51.338;12.524;2023-03-11T03:27:50;21.70;;;10.23;;
21862;SDS011;11096;51.338;12.524;2023-03-11T03:30:16;18.95;;;9.20;;
21862;SDS011;11096;51.338;12.524;2023-03-11T03:32:41;20.77;;;9.80;;
21862;SDS011;11096;51.338;12.524;2023-03-11T03:35:07;18.42;;;9.23;;
21862;SDS011;11096;51.338;12.524;2023-03-11T03:37:33;18.23;;;9.25;;
21862;SDS011;11096;51.338;12.524;2023-03-11T03:40:01;19.88;;;9.60;;
21862;SDS011;11096;51.338;12.524;2023-03-11T03:42:31;19.13;;;9.43;;
21862;SDS011;11096;51.338;12.524;2023-03-11T03:44:58;18.40;;;8.95;;
21862;SDS011;11096;51.338;12.524;2023-03-11T03:47:23;21.83;;;9.50;;
21862;SDS011;11096;51.338;12.524;2023-03-11T03:49:49;18.95;;;9.23;;
21862;SDS011;11096;51.338;12.524;2023-03-11T03:52:14;20.60;;;9.07;;
21862;SDS011;11096;51.338;12.524;2023-03-11T03:54:39;21.40;;;9.20;;
21862;SDS011;11096;51.338;12.524;2023-03-11T03:57:05;18.92;;;8.93;;
21862;SDS011;11096;51.338;12.524;2023-03-11T03:59:30;18.85;;;9.15;;
21862;SDS011;11096;51.338;12.524;2023-03-11T04:01:56;20.88;;;9.60;;
21862;SDS011;11096;51.338;12.524;2023-03-11T04:04:22;21.20;;;9.27;;
21862;SDS011;11096;51.338;12.524;2023-03-11T04:06:47;21.73;;;10.02;;
21862;SDS011;11096;51.338;12.524;2023-03-11T04:09:13;23.15;;;10.45;;
21862;SDS011;11096;51.338;12.524;2023-03-11T04:11:39;30.70;;;10.80;;
21862;SDS011;11096;51.338;12.524;2023-03-11T04:14:05;23.63;;;10.50;;
21862;SDS011;11096;51.338;12.524;2023-03-11T04:16:31;24.50;;;11.65;;
21862;SDS011;11096;51.338;12.524;2023-03-11T04:18:57;28.67;;;11.57;;
21862;SDS011;11096;51.338;12.524;2023-03-11T04:21:22;27.02;;;11.60;;
21862;SDS011;11096;51.338;12.524;2023-03-11T04:23:48;25.17;;;10.95;;
21862;SDS011;11096;51.338;12.524;2023-03-11T04:26:13;29.17;;;12.50;;
21862;SDS011;11096;51.338;12.524;2023-03-11T04:28:39;29.73;;;12.00;;
21862;SDS011;11096;51.338;12.524;2023-03-11T04:31:04;29.27;;;11.57;;
21862;SDS011;11096;51.338;12.524;2023-03-11T04:33:30;30.00;;;11.52;;
21862;SDS011;11096;51.338;12.524;2023-03-11T04:35:56;22.55;;;10.25;;
21862;SDS011;11096;51.338;12.524;2023-03-11T04:38:21;28.23;;;11.43;;
21862;SDS011;11096;51.338;12.524;2023-03-11T04:40:47;28.10;;;11.68;;
21862;SDS011;11096;51.338;12.524;2023-03-11T04:43:12;22.00;;;9.52;;
21862;SDS011;11096;51.338;12.524;2023-03-11T04:45:38;23.60;;;10.18;;
21862;SDS011;11096;51.338;12.524;2023-03-11T04:48:04;23.83;;;10.40;;
21862;SDS011;11096;51.338;12.524;2023-03-11T04:50:30;21.92;;;9.82;;
21862;SDS011;11096;51.338;12.524;2023-03-11T04:52:55;23.17;;;10.48;;
21862;SDS011;11096;51.338;12.524;2023-03-11T04:55:21;19.88;;;8.95;;
21862;SDS011;11096;51.338;12.524;2023-03-11T04:57:47;20.35;;;9.15;;
21862;SDS011;11096;51.338;12.524;2023-03-11T05:00:12;23.90;;;10.55;;
21862;SDS011;11096;51.338;12.524;2023-03-11T05:02:39;20.63;;;9.07;;
21862;SDS011;11096;51.338;12.524;2023-03-11T05:05:06;21.90;;;8.63;;
21862;SDS011;11096;51.338;12.524;2023-03-11T05:07:33;21.65;;;8.40;;
21862;SDS011;11096;51.338;12.524;2023-03-11T05:09:59;19.60;;;8.85;;
21862;SDS011;11096;51.338;12.524;2023-03-11T05:12:25;20.60;;;9.60;;
21862;SDS011;11096;51.338;12.524;2023-03-11T05:14:50;22.85;;;8.85;;
21862;SDS011;11096;51.338;12.524;2023-03-11T05:17:16;21.08;;;8.93;;
21862;SDS011;11096;51.338;12.524;2023-03-11T05:19:43;21.23;;;9.05;;
21862;SDS011;11096;51.338;12.524;2023-03-11T05:22:08;24.40;;;8.73;;
21862;SDS011;11096;51.338;12.524;2023-03-11T05:24:34;21.50;;;9.10;;
21862;SDS011;11096;51.338;12.524;2023-03-11T05:27:00;23.95;;;8.82;;
21862;SDS011;11096;51.338;12.524;2023-03-11T05:29:26;20.52;;;9.15;;
21862;SDS011;11096;51.338;12.524;2023-03-11T05:31:52;23.80;;;9.82;;
21862;SDS011;11096;51.338;12.524;2023-03-11T05:34:18;23.88;;;9.85;;
21862;SDS011;11096;51.338;12.524;2023-03-11T05:36:44;25.20;;;10.27;;
21862;SDS011;11096;51.338;12.524;2023-03-11T05:39:10;27.13;;;10.43;;
21862;SDS011;11096;51.338;12.524;2023-03-11T05:41:35;25.65;;;10.90;;
21862;SDS011;11096;51.338;12.524;2023-03-11T05:44:01;28.38;;;11.07;;
21862;SDS011;11096;51.338;12.524;2023-03-11T05:46:27;27.15;;;10.35;;
21862;SDS011;11096;51.338;12.524;2023-03-11T05:48:52;25.60;;;10.02;;
21862;SDS011;11096;51.338;12.524;2023-03-11T05:51:18;27.48;;;11.48;;
21862;SDS011;11096;51.338;12.524;2023-03-11T05:53:44;27.10;;;11.43;;
21862;SDS011;11096;51.338;12.524;2023-03-11T05:56:12;29.77;;;10.50;;
21862;SDS011;11096;51.338;12.524;2023-03-11T05:58:38;24.38;;;10.93;;
21862;SDS011;11096;51.338;12.524;2023-03-11T06:01:07;21.90;;;10.43;;
21862;SDS011;11096;51.338;12.524;2023-03-11T06:03:35;23.40;;;10.32;;
21862;SDS011;11096;51.338;12.524;2023-03-11T06:06:00;22.42;;;9.23;;
21862;SDS011;11096;51.338;12.524;2023-03-11T06:08:26;21.52;;;9.88;;
21862;SDS011;11096;51.338;12.524;2023-03-11T06:10:51;26.15;;;10.55;;
21862;SDS011;11096;51.338;12.524;2023-03-11T06:13:17;29.70;;;11.30;;
21862;SDS011;11096;51.338;12.524;2023-03-11T06:15:42;22.90;;;9.40;;
21862;SDS011;11096;51.338;12.524;2023-03-11T06:18:08;27.63;;;10.70;;
21862;SDS011;11096;51.338;12.524;2023-03-11T06:20:34;27.85;;;10.95;;
21862;SDS011;11096;51.338;12.524;2023-03-11T06:23:00;30.55;;;10.57;;
21862;SDS011;11096;51.338;12.524;2023-03-11T06:25:25;21.10;;;9.20;;
21862;SDS011;11096;51.338;12.524;2023-03-11T06:27:51;24.08;;;9.32;;
21862;SDS011;11096;51.338;12.524;2023-03-11T06:30:17;21.52;;;8.95;;
21862;SDS011;11096;51.338;12.524;2023-03-11T06:32:46;21.50;;;8.73;;
21862;SDS011;11096;51.338;12.524;2023-03-11T06:35:12;22.85;;;9.32;;
21862;SDS011;11096;51.338;12.524;2023-03-11T06:37:38;20.23;;;8.45;;
21862;SDS011;11096;51.338;12.524;2023-03-11T06:40:04;16.17;;;7.88;;
21862;SDS011;11096;51.338;12.524;2023-03-11T06:42:32;20.02;;;7.88;;
21862;SDS011;11096;51.338;12.524;2023-03-11T06:44:57;19.85;;;8.48;;
21862;SDS011;11096;51.338;12.524;2023-03-11T06:47:23;19.67;;;8.43;;
21862;SDS011;11096;51.338;12.524;2023-03-11T06:49:49;18.20;;;8.07;;
21862;SDS011;11096;51.338;12.524;2023-03-11T06:52:14;18.35;;;7.75;;
21862;SDS011;11096;51.338;12.524;2023-03-11T06:54:40;21.42;;;8.32;;
21862;SDS011;11096;51.338;12.524;2023-03-11T06:57:06;23.23;;;8.55;;
21862;SDS011;11096;51.338;12.524;2023-03-11T06:59:33;21.67;;;8.77;;
21862;SDS011;11096;51.338;12.524;2023-03-11T07:01:58;22.70;;;9.05;;
21862;SDS011;11096;51.338;12.524;2023-03-11T07:04:24;21.13;;;8.30;;
21862;SDS011;11096;51.338;12.524;2023-03-11T07:06:49;22.13;;;9.18;;
21862;SDS011;11096;51.338;12.524;2023-03-11T07:09:15;26.38;;;9.23;;
21862;SDS011;11096;51.338;12.524;2023-03-11T07:11:40;21.27;;;8.35;;
21862;SDS011;11096;51.338;12.524;2023-03-11T07:14:06;21.38;;;9.60;;
21862;SDS011;11096;51.338;12.524;2023-03-11T07:16:32;20.42;;;8.20;;
21862;SDS011;11096;51.338;12.524;2023-03-11T07:18:58;20.10;;;8.30;;
21862;SDS011;11096;51.338;12.524;2023-03-11T07:21:26;20.45;;;8.80;;
21862;SDS011;11096;51.338;12.524;2023-03-11T07:23:53;19.45;;;7.45;;
21862;SDS011;11096;51.338;12.524;2023-03-11T07:26:20;23.17;;;8.52;;
21862;SDS011;11096;51.338;12.524;2023-03-11T07:28:46;19.55;;;8.32;;
21862;SDS011;11096;51.338;12.524;2023-03-11T07:31:17;18.80;;;8.07;;
21862;SDS011;11096;51.338;12.524;2023-03-11T07:33:44;17.92;;;7.85;;
21862;SDS011;11096;51.338;12.524;2023-03-11T07:36:11;16.50;;;6.88;;
21862;SDS011;11096;51.338;12.524;2023-03-11T07:38:39;20.25;;;7.72;;
21862;SDS011;11096;51.338;12.524;2023-03-11T07:41:05;14.57;;;6.55;;
21862;SDS011;11096;51.338;12.524;2023-03-11T07:43:32;13.48;;;6.57;;
21862;SDS011;11096;51.338;12.524;2023-03-11T07:46:01;16.67;;;7.30;;
21862;SDS011;11096;51.338;12.524;2023-03-11T07:48:32;15.95;;;7.32;;
21862;SDS011;11096;51.338;12.524;2023-03-11T07:51:01;17.10;;;7.38;;
21862;SDS011;11096;51.338;12.524;2023-03-11T07:53:28;14.25;;;6.82;;
21862;SDS011;11096;51.338;12.524;2023-03-11T07:55:54;15.95;;;7.32;;
21862;SDS011;11096;51.338;12.524;2023-03-11T07:58:21;19.42;;;7.15;;
21862;SDS011;11096;51.338;12.524;2023-03-11T08:00:46;16.98;;;7.13;;
21862;SDS011;11096;51.338;12.524;2023-03-11T08:03:11;17.20;;;7.25;;
21862;SDS011;11096;51.338;12.524;2023-03-11T08:05:37;17.92;;;7.57;;
21862;SDS011;11096;51.338;12.524;2023-03-11T08:08:02;18.02;;;7.97;;
21862;SDS011;11096;51.338;12.524;2023-03-11T08:10:28;19.95;;;8.32;;
21862;SDS011;11096;51.338;12.524;2023-03-11T08:12:53;18.83;;;8.10;;
21862;SDS011;11096;51.338;12.524;2023-03-11T08:15:18;15.93;;;7.40;;
21862;SDS011;11096;51.338;12.524;2023-03-11T08:17:44;16.40;;;7.97;;
21862;SDS011;11096;51.338;12.524;2023-03-11T08:20:09;17.83;;;8.43;;
21862;SDS011;11096;51.338;12.524;2023-03-11T08:22:35;21.92;;;9.07;;
21862;SDS011;11096;51.338;12.524;2023-03-11T08:25:00;23.58;;;9.77;;
21862;SDS011;11096;51.338;12.524;2023-03-11T08:27:26;22.70;;;9.07;;
21862;SDS011;11096;51.338;12.524;2023-03-11T08:29:53;21.40;;;8.77;;
21862;SDS011;11096;51.338;12.524;2023-03-11T08:32:18;21.52;;;9.43;;
21862;SDS011;11096;51.338;12.524;2023-03-11T08:34:44;23.80;;;9.93;;
21862;SDS011;11096;51.338;12.524;2023-03-11T08:37:09;20.33;;;8.20;;
21862;SDS011;11096;51.338;12.524;2023-03-11T08:39:35;18.88;;;9.10;;
21862;SDS011;11096;51.338;12.524;2023-03-11T08:42:00;21.67;;;9.95;;
21862;SDS011;11096;51.338;12.524;2023-03-11T08:44:27;20.23;;;8.75;;
21862;SDS011;11096;51.338;12.524;2023-03-11T08:46:53;21.63;;;9.65;;
21862;SDS011;11096;51.338;12.524;2023-03-11T08:49:18;20.92;;;8.68;;
21862;SDS011;11096;51.338;12.524;2023-03-11T08:51:44;22.50;;;9.52;;
21862;SDS011;11096;51.338;12.524;2023-03-11T08:54:09;20.98;;;8.90;;
21862;SDS011;11096;51.338;12.524;2023-03-11T08:56:35;17.02;;;8.18;;
21862;SDS011;11096;51.338;12.524;2023-03-11T08:59:00;18.75;;;7.72;;
21862;SDS011;11096;51.338;12.524;2023-03-11T09:01:26;17.95;;;7.68;;
21862;SDS011;11096;51.338;12.524;2023-03-11T09:03:53;13.90;;;6.72;;
21862;SDS011;11096;51.338;12.524;2023-03-11T09:06:19;13.93;;;6.75;;
21862;SDS011;11096;51.338;12.524;2023-03-11T09:08:45;18.67;;;7.20;;
21862;SDS011;11096;51.338;12.524;2023-03-11T09:11:12;15.57;;;6.40;;
21862;SDS011;11096;51.338;12.524;2023-03-11T09:13:39;10.70;;;5.90;;
21862;SDS011;11096;51.338;12.524;2023-03-11T09:16:06;15.23;;;6.40;;
21862;SDS011;11096;51.338;12.524;2023-03-11T09:18:40;13.48;;;6.28;;
21862;SDS011;11096;51.338;12.524;2023-03-11T09:21:05;14.40;;;6.68;;
21862;SDS011;11096;51.338;12.524;2023-03-11T09:23:31;14.02;;;5.82;;
21862;SDS011;11096;51.338;12.524;2023-03-11T09:25:56;14.50;;;6.40;;
21862;SDS011;11096;51.338;12.524;2023-03-11T09:28:22;12.73;;;6.43;;
21862;SDS011;11096;51.338;12.524;2023-03-11T09:30:47;13.13;;;6.30;;
21862;SDS011;11096;51.338;12.524;2023-03-11T09:33:12;16.23;;;6.35;;
21862;SDS011;11096;51.338;12.524;2023-03-11T09:35:38;14.32;;;6.07;;
21862;SDS011;11096;51.338;12.524;2023-03-11T09:38:03;15.02;;;6.75;;
21862;SDS011;11096;51.338;12.524;2023-03-11T09:40:37;16.15;;;7.00;;
21862;SDS011;11096;51.338;12.524;2023-03-11T09:43:27;12.40;;;6.32;;
21862;SDS011;11096;51.338;12.524;2023-03-11T09:52:08;14.25;;;7.05;;
21862;SDS011;11096;51.338;12.524;2023-03-11T09:54:38;18.00;;;8.20;;
21862;SDS011;11096;51.338;12.524;2023-03-11T09:57:11;13.27;;;7.30;;
21862;SDS011;11096;51.338;12.524;2023-03-11T09:59:50;15.30;;;7.90;;
21862;SDS011;11096;51.338;12.524;2023-03-11T10:02:19;12.63;;;7.72;;
21862;SDS011;11096;51.338;12.524;2023-03-11T10:04:55;19.88;;;7.65;;
21862;SDS011;11096;51.338;12.524;2023-03-11T10:07:48;22.38;;;8.43;;
21862;SDS011;11096;51.338;12.524;2023-03-11T10:10:15;21.15;;;9.00;;
21862;SDS011;11096;51.338;12.524;2023-03-11T10:18:05;18.38;;;8.43;;
21862;SDS011;11096;51.338;12.524;2023-03-11T10:23:21;16.27;;;8.18;;
21862;SDS011;11096;51.338;12.524;2023-03-11T10:39:24;17.92;;;7.72;;
21862;SDS011;11096;51.338;12.524;2023-03-11T10:41:51;16.98;;;8.05;;
21862;SDS011;11096;51.338;12.524;2023-03-11T10:44:52;12.50;;;6.90;;
21862;SDS011;11096;51.338;12.524;2023-03-11T10:47:17;13.50;;;7.10;;
21862;SDS011;11096;51.338;12.524;2023-03-11T10:49:43;14.48;;;7.22;;
21862;SDS011;11096;51.338;12.524;2023-03-11T10:52:08;11.80;;;6.85;;
21862;SDS011;11096;51.338;12.524;2023-03-11T10:54:35;15.10;;;6.50;;
21862;SDS011;11096;51.338;12.524;2023-03-11T10:57:05;12.02;;;6.30;;
21862;SDS011;11096;51.338;12.524;2023-03-11T10:59:46;13.68;;;7.35;;
21862;SDS011;11096;51.338;12.524;2023-03-11T11:04:43;14.07;;;6.95;;
21862;SDS011;11096;51.338;12.524;2023-03-11T11:07:19;15.23;;;8.05;;
21862;SDS011;11096;51.338;12.524;2023-03-11T11:09:44;13.95;;;7.93;;
21862;SDS011;11096;51.338;12.524;2023-03-11T11:12:13;17.35;;;7.82;;
21862;SDS011;11096;51.338;12.524;2023-03-11T11:14:45;15.10;;;8.07;;
21862;SDS011;11096;51.338;12.524;2023-03-11T11:19:52;15.77;;;7.97;;
21862;SDS011;11096;51.338;12.524;2023-03-11T11:22:21;14.30;;;7.72;;
21862;SDS011;11096;51.338;12.524;2023-03-11T11:24:48;14.27;;;7.75;;
21862;SDS011;11096;51.338;12.524;2023-03-11T11:29:41;13.80;;;7.40;;
21862;SDS011;11096;51.338;12.524;2023-03-11T11:34:39;13.32;;;7.30;;
21862;SDS011;11096;51.338;12.524;2023-03-11T11:37:05;15.70;;;7.72;;
21862;SDS011;11096;51.338;12.524;2023-03-11T11:39:54;13.18;;;7.78;;
21862;SDS011;11096;51.338;12.524;2023-03-11T11:42:23;14.00;;;7.63;;
21862;SDS011;11096;51.338;12.524;2023-03-11T11:44:52;13.85;;;7.45;;
21862;SDS011;11096;51.338;12.524;2023-03-11T11:47:27;14.98;;;8.13;;
21862;SDS011;11096;51.338;12.524;2023-03-11T11:49:59;12.40;;;7.10;;
21862;SDS011;11096;51.338;12.524;2023-03-11T11:52:34;15.32;;;7.55;;
21862;SDS011;11096;51.338;12.524;2023-03-11T11:55:12;16.02;;;7.80;;
21862;SDS011;11096;51.338;12.524;2023-03-11T11:57:44;16.70;;;8.80;;
21862;SDS011;11096;51.338;12.524;2023-03-11T12:00:17;18.38;;;8.90;;
21862;SDS011;11096;51.338;12.524;2023-03-11T12:11:05;8.40;;;5.50;;
21862;SDS011;11096;51.338;12.524;2023-03-11T12:16:30;6.15;;;4.03;;
21862;SDS011;11096;51.338;12.524;2023-03-11T12:27:00;5.60;;;4.22;;
21862;SDS011;11096;51.338;12.524;2023-03-11T12:29:35;6.05;;;3.90;;
21862;SDS011;11096;51.338;12.524;2023-03-11T12:32:08;6.63;;;3.60;;
21862;SDS011;11096;51.338;12.524;2023-03-11T12:34:47;6.88;;;3.95;;
21862;SDS011;11096;51.338;12.524;2023-03-11T12:37:13;8.25;;;4.30;;
21862;SDS011;11096;51.338;12.524;2023-03-11T12:39:40;7.68;;;4.38;;
21862;SDS011;11096;51.338;12.524;2023-03-11T12:44:35;10.00;;;5.30;;
21862;SDS011;11096;51.338;12.524;2023-03-11T12:49:42;11.60;;;6.22;;
21862;SDS011;11096;51.338;12.524;2023-03-11T12:54:39;12.10;;;5.47;;
21862;SDS011;11096;51.338;12.524;2023-03-11T13:02:22;6.93;;;4.78;;
21862;SDS011;11096;51.338;12.524;2023-03-11T13:05:11;9.73;;;5.03;;
21862;SDS011;11096;51.338;12.524;2023-03-11T13:08:13;12.77;;;5.32;;
21862;SDS011;11096;51.338;12.524;2023-03-11T13:10:45;8.20;;;4.65;;
21862;SDS011;11096;51.338;12.524;2023-03-11T13:15:50;10.68;;;5.43;;
21862;SDS011;11096;51.338;12.524;2023-03-11T13:18:17;8.75;;;5.28;;
21862;SDS011;11096;51.338;12.524;2023-03-11T13:21:03;8.95;;;4.68;;
21862;SDS011;11096;51.338;12.524;2023-03-11T13:31:43;9.10;;;5.35;;
21862;SDS011;11096;51.338;12.524;2023-03-11T13:40:43;13.93;;;6.50;;
21862;SDS011;11096;51.338;12.524;2023-03-11T13:43:32;10.75;;;5.97;;
21862;SDS011;11096;51.338;12.524;2023-03-11T13:45:58;12.40;;;6.25;;
21862;SDS011;11096;51.338;12.524;2023-03-11T13:51:00;11.50;;;6.88;;
21862;SDS011;11096;51.338;12.524;2023-03-11T13:53:42;8.48;;;5.82;;
21862;SDS011;11096;51.338;12.524;2023-03-11T13:56:21;9.10;;;6.03;;
21862;SDS011;11096;51.338;12.524;2023-03-11T13:58:50;8.50;;;5.70;;
21862;SDS011;11096;51.338;12.524;2023-03-11T14:01:16;9.48;;;5.05;;
21862;SDS011;11096;51.338;12.524;2023-03-11T14:03:43;10.88;;;4.95;;
21862;SDS011;11096;51.338;12.524;2023-03-11T14:06:16;8.45;;;4.88;;
21862;SDS011;11096;51.338;12.524;2023-03-11T14:08:51;6.43;;;4.20;;
21862;SDS011;11096;51.338;12.524;2023-03-11T14:11:18;5.75;;;4.10;;
21862;SDS011;11096;51.338;12.524;2023-03-11T14:13:47;10.27;;;4.28;;
21862;SDS011;11096;51.338;12.524;2023-03-11T14:16:30;9.30;;;4.43;;
21862;SDS011;11096;51.338;12.524;2023-03-11T14:19:01;6.47;;;4.15;;
21862;SDS011;11096;51.338;12.524;2023-03-11T14:21:26;5.05;;;4.00;;
21862;SDS011;11096;51.338;12.524;2023-03-11T14:23:52;7.03;;;4.18;;
21862;SDS011;11096;51.338;12.524;2023-03-11T14:26:20;6.35;;;4.18;;
21862;SDS011;11096;51.338;12.524;2023-03-11T14:28:48;6.15;;;4.05;;
21862;SDS011;11096;51.338;12.524;2023-03-11T14:31:21;7.65;;;4.60;;
21862;SDS011;11096;51.338;12.524;2023-03-11T14:33:57;9.43;;;4.00;;
21862;SDS011;11096;51.338;12.524;2023-03-11T14:36:28;7.45;;;3.88;;
21862;SDS011;11096;51.338;12.524;2023-03-11T14:39:22;7.65;;;3.70;;
21862;SDS011;11096;51.338;12.524;2023-03-11T14:41:48;5.15;;;4.28;;
21862;SDS011;11096;51.338;12.524;2023-03-11T14:44:15;6.80;;;4.22;;
21862;SDS011;11096;51.338;12.524;2023-03-11T14:46:41;7.60;;;4.32;;
21862;SDS011;11096;51.338;12.524;2023-03-11T14:49:11;6.72;;;4.18;;
21862;SDS011;11096;51.338;12.524;2023-03-11T14:51:41;6.80;;;4.10;;
21862;SDS011;11096;51.338;12.524;2023-03-11T14:54:11;7.78;;;4.82;;
21862;SDS011;11096;51.338;12.524;2023-03-11T14:56:47;7.38;;;5.07;;
21862;SDS011;11096;51.338;12.524;2023-03-11T14:59:27;7.22;;;4.97;;
21862;SDS011;11096;51.338;12.524;2023-03-11T15:01:56;10.07;;;4.68;;
21862;SDS011;11096;51.338;12.524;2023-03-11T15:04:30;5.68;;;4.22;;
21862;SDS011;11096;51.338;12.524;2023-03-11T15:06:59;7.70;;;4.47;;
21862;SDS011;11096;51.338;12.524;2023-03-11T15:09:25;6.40;;;3.97;;
21862;SDS011;11096;51.338;12.524;2023-03-11T15:11:53;7.95;;;4.22;;
21862;SDS011;11096;51.338;12.524;2023-03-11T15:17:08;7.15;;;3.42;;
21862;SDS011;11096;51.338;12.524;2023-03-11T15:19:42;6.18;;;3.20;;
21862;SDS011;11096;51.338;12.524;2023-03-11T15:22:27;5.93;;;3.70;;
21862;SDS011;11096;51.338;12.524;2023-03-11T15:24:54;4.30;;;2.75;;
21862;SDS011;11096;51.338;12.524;2023-03-11T15:27:28;5.22;;;3.40;;
21862;SDS011;11096;51.338;12.524;2023-03-11T15:29:56;7.70;;;3.42;;
21862;SDS011;11096;51.338;12.524;2023-03-11T15:32:24;5.40;;;3.05;;
21862;SDS011;11096;51.338;12.524;2023-03-11T15:35:10;4.63;;;3.08;;
21862;SDS011;11096;51.338;12.524;2023-03-11T15:37:39;4.03;;;2.90;;
21862;SDS011;11096;51.338;12.524;2023-03-11T15:42:47;4.15;;;2.78;;
21862;SDS011;11096;51.338;12.524;2023-03-11T15:45:17;3.80;;;2.90;;
21862;SDS011;11096;51.338;12.524;2023-03-11T15:47:44;4.20;;;2.75;;
21862;SDS011;11096;51.338;12.524;2023-03-11T15:50:19;6.22;;;2.40;;
21862;SDS011;11096;51.338;12.524;2023-03-11T15:52:48;3.17;;;2.10;;
21862;SDS011;11096;51.338;12.524;2023-03-11T15:55:14;4.05;;;2.25;;
21862;SDS011;11096;51.338;12.524;2023-03-11T15:57:39;3.42;;;2.05;;
21862;SDS011;11096;51.338;12.524;2023-03-11T16:00:06;2.80;;;2.33;;
21862;SDS011;11096;51.338;12.524;2023-03-11T16:02:40;4.68;;;2.30;;
21862;SDS011;11096;51.338;12.524;2023-03-11T16:05:16;3.88;;;2.13;;
21862;SDS011;11096;51.338;12.524;2023-03-11T16:07:44;2.35;;;2.10;;